Terminal Aerodrome Forecast
Issued by NWS Charleston, WV

Current Version | Previous Version | Graphics & Text | Print | Product List | Glossary On
Versions: 1 2 3 4 5 6 7 8 9 10 11 12 13 14 15 16 17 18 19 20 21 22 23 24 25
000
FTUS41 KRLX 262300
TAFCRW
TAF
KCRW 262338Z 2700/2724 32010KT P6SM SCT045 SCT110 SCT220
     FM270400 33005KT 5SM -SHSN BR BKN030
     FM271100 33005KT P6SM BKN030
     FM271600 32005KT P6SM SCT030=

USA.gov is the U.S. government's official web portal to all federal, state and local government web resources and services.